Time;durP1;ratioP1;P1;durP2;ratioP2;P2;SDS_P1;SDS_P2;PMS_P1;PMS_P2;Temp;Humidity;BMP_temperature;BMP_pressure;BME280_temperature;BME280_humidity;BME280_pressure;Samples;Min_cycle;Max_cycle;Signal;HPM_P1;HPM_P2
2023/01/28 00:01:19;;;;;;;27.37;14.53;;;;;;;-2.03;73.18;101041.69;1824015;78;21321;-55
2023/01/28 00:03:50;;;;;;;42.48;17.80;;;;;;;-1.99;73.11;101042.17;1825187;78;21151;-55
2023/01/28 00:06:19;;;;;;;46.65;18.02;;;;;;;-1.96;72.99;101040.92;1826187;78;21080;-56
2023/01/28 00:08:49;;;;;;;36.40;16.00;;;;;;;-1.92;72.94;101039.69;1823018;78;21068;-53
2023/01/28 00:11:17;;;;;;;43.23;19.75;;;;;;;-1.91;72.91;101036.28;1812024;78;21111;-53
2023/01/28 00:13:46;;;;;;;49.88;19.37;;;;;;;-1.91;72.99;101024.66;1823816;78;21071;-51
2023/01/28 00:16:14;;;;;;;56.33;23.00;;;;;;;-1.89;73.04;101029.43;1796333;80;21068;-54
2023/01/28 00:18:43;;;;;;;46.37;18.45;;;;;;;-1.90;73.10;101032.44;1800155;78;21186;-56
2023/01/28 00:21:14;;;;;;;51.13;20.85;;;;;;;-1.91;73.14;101031.12;1825388;78;21163;-50
2023/01/28 00:23:45;;;;;;;42.85;18.52;;;;;;;-1.89;72.97;101026.41;1823870;78;21064;-51
2023/01/28 00:26:14;;;;;;;48.75;20.60;;;;;;;-1.85;72.79;101020.88;1796891;78;21067;-48
2023/01/28 00:28:44;;;;;;;34.18;18.07;;;;;;;-1.84;72.63;101004.56;1815984;78;21595;-52
2023/01/28 00:31:18;;;;;;;42.53;21.65;;;;;;;-1.82;72.51;100997.71;1812067;79;21063;-56
2023/01/28 00:33:47;;;;;;;;;;;;;;;-1.81;72.42;100995.56;1820240;79;21070;-56
2023/01/28 00:36:17;;;;;;;31.37;13.25;;;;;;;-1.78;72.31;100995.62;1808389;77;20544;-53
2023/01/28 00:38:54;;;;;;;30.52;12.90;;;;;;;-1.81;72.27;101000.72;1815175;79;21070;-59
2023/01/28 00:41:25;;;;;;;36.70;15.13;;;;;;;-1.83;72.31;101001.98;1815882;79;21138;-47
2023/01/28 00:43:54;;;;;;;36.03;16.07;;;;;;;-1.81;72.35;101000.72;1818041;79;21065;-47
2023/01/28 00:46:25;;;;;;;40.92;14.30;;;;;;;-1.80;72.34;101001.18;1837667;77;21042;-46
2023/01/28 00:48:54;;;;;;;43.68;17.37;;;;;;;-1.79;72.35;100997.34;1817980;79;21079;-51
2023/01/28 00:51:23;;;;;;;45.85;16.77;;;;;;;-1.77;72.56;101005.08;1832170;78;21060;-46
2023/01/28 00:53:52;;;;;;;46.75;20.85;;;;;;;-1.81;72.80;101001.61;1841932;77;21044;-50
2023/01/28 00:56:21;;;;;;;46.05;19.07;;;;;;;-1.81;72.75;100997.73;1803883;78;21072;-49
2023/01/28 00:58:50;;;;;;;49.48;20.40;;;;;;;-1.81;72.74;100996.84;1848525;78;21052;-48
2023/01/28 01:01:21;;;;;;;53.73;19.77;;;;;;;-1.81;72.75;100991.69;1833978;77;21119;-45
2023/01/28 01:03:56;;;;;;;45.38;18.65;;;;;;;-1.79;72.81;100993.87;1817350;78;21108;-51
2023/01/28 01:06:23;;;;;;;37.23;16.33;;;;;;;-1.80;72.93;100995.59;1815160;79;21155;-47
2023/01/28 01:08:52;;;;;;;31.68;15.90;;;;;;;-1.75;72.72;100990.08;1815069;79;21131;-46
2023/01/28 01:11:21;;;;;;;40.58;16.87;;;;;;;-1.71;72.57;100987.55;1815051;79;21143;-44
2023/01/28 01:13:57;;;;;;;32.88;15.10;;;;;;;-1.68;72.51;100985.86;1833619;78;21213;-45
2023/01/28 01:16:29;;;;;;;46.95;18.40;;;;;;;-1.64;72.48;100977.73;1845569;78;21138;-49
2023/01/28 01:18:58;;;;;;;54.58;19.25;;;;;;;-1.62;72.46;100971.77;1845584;78;21013;-48
2023/01/28 01:21:29;;;;;;;45.83;18.95;;;;;;;-1.63;72.57;100966.58;1845561;78;21092;-43
2023/01/28 01:23:58;;;;;;;40.73;18.98;;;;;;;-1.63;72.57;100964.85;1845542;78;21036;-48
2023/01/28 01:26:27;;;;;;;43.85;19.30;;;;;;;-1.60;72.44;100965.34;1845517;78;21040;-47
2023/01/28 01:28:57;;;;;;;44.67;17.87;;;;;;;-1.63;72.45;100964.85;1845542;77;21079;-44
2023/01/28 01:31:26;;;;;;;50.70;19.48;;;;;;;-1.65;72.48;100964.40;1845605;78;21068;-44
2023/01/28 01:33:54;;;;;;;44.93;18.07;;;;;;;-1.62;72.38;100966.61;1845568;78;21049;-48
2023/01/28 01:36:23;;;;;;;39.55;15.83;;;;;;;-1.60;72.35;100963.62;1845549;78;21138;-47
2023/01/28 01:38:55;;;;;;;38.70;15.72;;;;;;;-1.56;72.33;100960.66;1845475;78;21195;-47
2023/01/28 01:41:30;;;;;;;44.88;19.00;;;;;;;-1.53;72.30;100958.53;1845725;78;21076;-50
2023/01/28 01:44:02;;;;;;;49.85;19.62;;;;;;;-1.51;72.26;100962.89;1845544;78;21182;-52
2023/01/28 01:46:45;;;;;;;43.42;18.60;;;;;;;-1.45;72.24;100955.64;1845529;78;21130;-50
2023/01/28 01:49:17;;;;;;;47.62;18.73;;;;;;;-1.43;72.23;100952.22;1840236;78;21552;-47
2023/01/28 01:51:49;;;;;;;49.38;19.10;;;;;;;-1.44;72.33;100952.20;1815175;79;21092;-48
2023/01/28 01:54:19;;;;;;;38.40;17.15;;;;;;;-1.49;72.49;100952.58;1815113;79;21514;-49
2023/01/28 01:56:50;;;;;;;40.28;18.65;;;;;;;-1.49;72.42;100951.30;1815027;79;21068;-50
2023/01/28 01:59:22;;;;;;;42.08;18.05;;;;;;;-1.46;72.39;100953.89;1815021;79;21107;-46
2023/01/28 02:01:52;;;;;;;41.85;17.35;;;;;;;-1.43;72.54;100952.66;1815010;79;21178;-47
2023/01/28 02:04:29;;;;;;;55.10;18.90;;;;;;;-1.40;72.60;100954.00;1813403;79;21550;-49
2023/01/28 02:07:01;;;;;;;45.90;16.85;;;;;;;-1.38;72.47;100957.47;1809885;79;21158;-49
2023/01/28 02:09:34;;;;;;;45.17;17.67;;;;;;;-1.36;72.48;100957.92;1809867;79;21237;-48
2023/01/28 02:12:08;;;;;;;39.43;16.57;;;;;;;-1.34;72.47;100954.06;1814791;79;21167;-47
2023/01/28 02:14:39;;;;;;;49.08;18.75;;;;;;;-1.32;72.51;100949.78;1815007;79;21351;-48
2023/01/28 02:17:09;;;;;;;37.42;15.03;;;;;;;-1.31;72.58;100948.95;1815079;79;21140;-47
2023/01/28 02:19:50;;;;;;;44.27;13.65;;;;;;;-1.28;72.50;100940.36;1815033;79;21117;-48
2023/01/28 02:22:28;;;;;;;38.40;14.10;;;;;;;-1.26;72.39;100947.27;1814664;78;21182;-51
2023/01/28 02:25:11;;;;;;;29.23;13.28;;;;;;;-1.23;72.21;100952.92;1814173;78;21155;-50
2023/01/28 02:27:52;;;;;;;43.17;14.45;;;;;;;-1.23;72.04;100947.31;1814008;78;21124;-53
2023/01/28 02:30:27;;;;;;;32.98;13.10;;;;;;;-1.23;71.89;100946.03;1814943;79;21041;-53
2023/01/28 02:32:58;;;;;;;28.05;12.20;;;;;;;-1.22;71.87;100949.47;1814969;79;21061;-53
2023/01/28 02:35:38;;;;;;;33.83;12.95;;;;;;;-1.23;71.86;100957.66;1814365;79;21072;-52
2023/01/28 02:38:25;;;;;;;24.92;11.12;;;;;;;-1.24;71.78;100961.07;1814998;79;21510;-52
2023/01/28 02:41:06;;;;;;;36.83;13.53;;;;;;;-1.26;71.72;100962.77;1798617;78;21107;-52
2023/01/28 02:43:40;;;;;;;28.75;12.10;;;;;;;-1.30;71.69;100960.14;1814880;79;21135;-52
2023/01/28 02:48:58;;;;;;;33.75;12.75;;;;;;;-1.32;71.64;100957.53;1807044;78;21057;-52
2023/01/28 02:51:45;;;;;;;30.72;11.45;;;;;;;-1.33;71.62;100953.64;1845513;78;21500;-53
2023/01/28 02:54:36;;;;;;;32.67;12.73;;;;;;;-1.34;71.62;100954.50;1845491;76;21166;-53
2023/01/28 02:57:08;;;;;;;32.45;12.85;;;;;;;-1.32;71.67;100956.24;1845499;78;21056;-49
2023/01/28 02:59:40;;;;;;;31.70;13.22;;;;;;;-1.32;71.60;100952.37;1845216;76;21181;-45
2023/01/28 03:02:25;;;;;;;31.93;12.00;;;;;;;-1.32;71.55;100942.47;1845653;78;21056;-50
2023/01/28 03:05:09;;;;;;;31.50;13.65;;;;;;;-1.33;71.51;100946.74;1840631;77;21096;-45
2023/01/28 03:07:39;;;;;;;37.28;14.18;;;;;;;-1.31;71.49;100942.89;1851055;77;21064;-47
2023/01/28 03:10:11;;;;;;;28.23;12.35;;;;;;;-1.29;71.44;100949.84;1851018;77;21082;-49
2023/01/28 03:38:22;;;;;;;48.55;13.48;;;;;;;-1.30;71.52;100966.60;1845758;78;21041;-50
2023/01/28 03:41:00;;;;;;;40.52;14.13;;;;;;;-1.29;71.56;100967.92;1845755;78;21089;-51
2023/01/28 03:43:32;;;;;;;44.85;15.50;;;;;;;-1.28;71.52;100963.61;1845606;78;21093;-50
2023/01/28 03:46:02;;;;;;;29.95;13.18;;;;;;;-1.28;71.50;100964.47;1845434;78;21060;-49
2023/01/28 03:48:31;;;;;;;39.25;14.70;;;;;;;-1.26;71.44;100964.06;1845656;78;21088;-50
2023/01/28 03:51:01;;;;;;;34.63;14.40;;;;;;;-1.25;71.43;100961.94;1818345;78;21495;-51
2023/01/28 03:53:30;;;;;;;32.45;15.23;;;;;;;-1.26;71.44;100965.36;1815070;79;21129;-50
2023/01/28 03:55:59;;;;;;;35.48;13.83;;;;;;;-1.26;71.57;100965.78;1815063;79;21209;-47
2023/01/28 04:01:17;;;;;;;30.35;13.20;;;;;;;-1.34;72.09;100974.73;1727736;83;21702;-53
2023/01/28 04:03:45;;;;;;;43.52;14.35;;;;;;;-1.32;72.28;100971.75;1727832;83;21182;-47
2023/01/28 04:06:16;;;;;;;31.10;13.18;;;;;;;-1.27;72.30;100980.43;1759422;79;21185;-49
2023/01/28 04:08:52;;;;;;;31.90;12.88;;;;;;;-1.27;72.24;100977.84;1816696;78;21078;-49
2023/01/28 04:11:24;;;;;;;39.95;14.38;;;;;;;-1.20;72.06;100992.98;1815286;79;21522;-51
2023/01/28 04:13:53;;;;;;;34.75;11.95;;;;;;;-1.21;71.96;100993.42;1817665;79;21083;-52
2023/01/28 04:16:23;;;;;;;37.93;16.07;;;;;;;-1.23;71.89;100995.55;1817595;78;21120;-48
2023/01/28 04:18:52;;;;;;;39.03;14.87;;;;;;;-1.24;71.89;100988.63;1817764;78;21563;-51
2023/01/28 04:21:21;;;;;;;35.63;13.80;;;;;;;-1.27;71.99;100984.31;1817527;79;21068;-49
2023/01/28 04:23:50;;;;;;;35.28;13.08;;;;;;;-1.23;71.90;100982.63;1817672;79;21091;-49
2023/01/28 04:26:19;;;;;;;34.90;14.38;;;;;;;-1.19;71.97;100987.84;1817658;79;21119;-51
2023/01/28 04:28:48;;;;;;;29.95;12.20;;;;;;;-1.16;71.87;100975.41;1817694;78;21100;-54
2023/01/28 04:31:17;;;;;;;46.25;15.43;;;;;;;-1.12;71.74;100975.02;1817768;78;21217;-49
2023/01/28 04:34:06;;;;;;;44.20;16.15;;;;;;;-1.13;71.73;100975.86;1730127;83;21170;-44
2023/01/28 04:36:36;;;;;;;38.23;15.25;;;;;;;-1.17;71.97;100977.53;1731409;82;21579;-47
2023/01/28 04:39:07;;;;;;;34.15;14.50;;;;;;;-1.20;72.13;100987.42;1762998;79;21193;-50
2023/01/28 04:41:40;;;;;;;27.35;13.20;;;;;;;-1.24;72.14;100993.37;1817679;79;21118;-48
2023/01/28 04:44:12;;;;;;;45.28;16.82;;;;;;;-1.29;72.19;100992.86;1816242;78;21131;-46
2023/01/28 04:46:54;;;;;;;;;;;;;;;-1.33;72.12;100986.78;1820269;79;21080;-46
2023/01/28 04:49:24;;;;;;;36.25;13.48;;;;;;;-1.37;71.95;100980.70;1806729;78;20131;-46
2023/01/28 04:51:55;;;;;;;45.80;16.07;;;;;;;-1.41;71.74;100978.94;1833544;76;21531;-46
2023/01/28 04:54:43;;;;;;;53.08;13.98;;;;;;;-1.45;71.63;100965.55;1761110;81;21114;-46
2023/01/28 04:57:12;;;;;;;34.38;15.05;;;;;;;-1.48;71.62;100964.62;1761505;81;21161;-46
2023/01/28 04:59:41;;;;;;;32.08;12.40;;;;;;;-1.50;71.56;100965.03;1791960;77;21104;-44
2023/01/28 05:02:16;;;;;;;39.20;14.70;;;;;;;-1.52;71.52;100958.98;1847874;77;21205;-51
2023/01/28 05:04:43;;;;;;;34.18;13.60;;;;;;;-1.52;71.50;100958.98;1847736;76;21165;-50
2023/01/28 05:07:13;;;;;;;38.70;14.40;;;;;;;-1.54;71.61;100965.84;1838941;77;21116;-48
2023/01/28 05:09:43;;;;;;;36.28;13.62;;;;;;;-1.60;71.90;100966.20;1836451;78;21612;-49
2023/01/28 05:12:11;;;;;;;23.45;11.00;;;;;;;-1.60;72.17;100959.74;1836494;78;21570;-44
2023/01/28 05:14:40;;;;;;;32.42;12.43;;;;;;;-1.54;72.09;100958.10;1836490;78;21210;-46
2023/01/28 05:17:11;;;;;;;40.03;13.43;;;;;;;-1.49;71.93;100950.86;1837344;78;21135;-43
2023/01/28 05:19:40;;;;;;;43.23;15.30;;;;;;;-1.44;71.78;100960.84;1845501;77;21077;-47
2023/01/28 05:22:10;;;;;;;36.58;15.13;;;;;;;-1.38;71.70;100964.78;1844447;77;21154;-46
2023/01/28 05:24:40;;;;;;;46.02;16.50;;;;;;;-1.35;71.80;100965.23;1845140;77;21130;-46
2023/01/28 05:27:09;;;;;;;36.98;15.25;;;;;;;-1.28;72.01;100954.57;1845592;78;21049;-48
2023/01/28 05:29:38;;;;;;;35.55;14.63;;;;;;;-1.17;72.00;100956.86;1845653;78;21162;-45
2023/01/28 05:32:07;;;;;;;36.03;13.85;;;;;;;-1.09;71.98;100957.81;1845556;78;21048;-44
2023/01/28 05:34:36;;;;;;;54.65;15.58;;;;;;;-1.01;71.87;100955.34;1845463;78;21167;-48
2023/01/28 05:37:06;;;;;;;28.70;13.20;;;;;;;-0.93;71.68;100958.87;1844781;77;21080;-46
2023/01/28 05:39:39;;;;;;;39.18;15.70;;;;;;;-0.85;71.57;100953.38;1845763;77;21080;-44
2023/01/28 05:42:09;;;;;;;40.98;15.48;;;;;;;-0.74;71.46;100961.66;1845608;78;21531;-50
2023/01/28 05:44:39;;;;;;;26.07;11.75;;;;;;;-0.69;71.49;100962.59;1845040;77;21092;-46
2023/01/28 05:47:09;;;;;;;36.58;14.68;;;;;;;-0.60;71.47;100957.50;1842729;77;21127;-47
2023/01/28 05:49:45;;;;;;;44.38;17.42;;;;;;;-0.50;71.33;100952.88;1833957;77;21518;-48
2023/01/28 05:52:32;;;;;;;35.83;14.68;;;;;;;-0.42;71.28;100943.89;1815012;79;21088;-50
2023/01/28 05:55:01;;;;;;;36.80;14.10;;;;;;;-0.38;71.27;100940.91;1815112;79;21667;-48
2023/01/28 05:57:31;;;;;;;27.60;12.25;;;;;;;-0.32;71.13;100938.36;1814945;79;21256;-47
2023/01/28 05:59:59;;;;;;;38.73;14.85;;;;;;;-0.30;70.93;100940.53;1814995;79;21096;-45
2023/01/28 06:02:28;;;;;;;39.95;16.45;;;;;;;-0.30;70.84;100936.66;1815030;79;21158;-47
2023/01/28 06:04:59;;;;;;;24.50;11.88;;;;;;;-0.28;70.97;100941.41;1814858;78;21057;-45
2023/01/28 06:07:27;;;;;;;33.55;15.40;;;;;;;-0.22;70.90;100938.90;1817633;79;21123;-45
2023/01/28 06:09:57;;;;;;;36.63;14.40;;;;;;;-0.17;70.75;100944.95;1819531;78;21143;-47
2023/01/28 06:12:26;;;;;;;39.80;16.40;;;;;;;-0.16;70.80;100951.87;1815106;79;21036;-49
2023/01/28 06:15:10;;;;;;;33.78;13.70;;;;;;;-0.14;70.83;100955.34;1810864;79;21112;-45
2023/01/28 06:17:43;;;;;;;40.23;16.35;;;;;;;-0.13;70.74;100951.02;1799629;79;21069;-44
2023/01/28 06:20:13;;;;;;;70.03;24.37;;;;;;;-0.08;70.72;100946.32;1813175;78;21091;-46
2023/01/28 06:22:42;;;;;;;46.02;15.93;;;;;;;-0.03;70.52;100940.76;1815043;79;21274;-47
2023/01/28 06:25:11;;;;;;;28.60;13.43;;;;;;;0.05;70.39;100943.84;1815078;79;21092;-46
2023/01/28 06:27:41;;;;;;;24.02;10.98;;;;;;;0.09;70.29;100945.18;1815045;79;21146;-47
2023/01/28 06:30:11;;;;;;;35.80;13.28;;;;;;;0.14;70.25;100942.61;1815195;79;21499;-43
2023/01/28 06:32:39;;;;;;;23.47;10.40;;;;;;;0.16;70.07;100946.07;1815036;79;21147;-44
2023/01/28 06:35:08;;;;;;;38.25;14.00;;;;;;;0.18;70.00;100936.59;1815144;79;21072;-47
2023/01/28 06:37:38;;;;;;;34.88;13.85;;;;;;;0.21;70.00;100930.14;1815188;79;21164;-48
2023/01/28 06:40:08;;;;;;;22.40;8.50;;;;;;;0.26;70.05;100927.16;1815113;79;21190;-46
2023/01/28 06:42:36;;;;;;;45.25;15.28;;;;;;;0.26;69.91;100930.16;1815196;79;21146;-48
2023/01/28 06:45:06;;;;;;;44.67;17.35;;;;;;;0.24;69.82;100931.47;1815241;79;21120;-45
2023/01/28 06:47:35;;;;;;;61.37;20.77;;;;;;;0.24;69.82;100927.58;1815171;79;21158;-44
2023/01/28 06:50:04;;;;;;;21.45;11.08;;;;;;;0.30;69.84;100937.97;1830196;78;21150;-45
2023/01/28 06:52:32;;;;;;;36.05;12.50;;;;;;;0.33;69.76;100945.77;1845701;78;21076;-48
2023/01/28 06:55:05;;;;;;;34.90;13.22;;;;;;;0.30;69.66;100948.77;1845567;78;21100;-48
2023/01/28 06:57:33;;;;;;;49.25;15.00;;;;;;;0.26;69.66;100949.17;1845665;78;21064;-43
2023/01/28 07:00:03;;;;;;;35.63;14.13;;;;;;;0.29;69.68;100947.02;1845590;78;21111;-46
2023/01/28 07:02:31;;;;;;;19.37;7.90;;;;;;;0.31;69.63;100943.58;1845621;78;21589;-49
2023/01/28 07:05:01;;;;;;;34.63;13.80;;;;;;;0.29;69.55;100934.93;1845561;78;21060;-44
2023/01/28 07:07:29;;;;;;;21.23;8.58;;;;;;;0.28;69.56;100926.73;1846741;77;21609;-49
2023/01/28 07:09:58;;;;;;;40.35;9.40;;;;;;;0.29;69.57;100928.89;1854595;77;21060;-48
2023/01/28 07:12:27;;;;;;;33.13;12.90;;;;;;;0.31;69.53;100928.03;1854420;77;21137;-46
2023/01/28 07:14:55;;;;;;;33.28;12.58;;;;;;;0.33;69.58;100919.87;1854469;77;21502;-46
2023/01/28 07:17:24;;;;;;;43.02;15.38;;;;;;;0.36;69.51;100932.81;1854576;77;21107;-46
2023/01/28 07:19:53;;;;;;;43.42;14.28;;;;;;;0.42;69.49;100922.06;1854550;77;21099;-44
2023/01/28 07:22:21;;;;;;;35.35;14.47;;;;;;;0.50;69.50;100934.61;1854497;77;21052;-48
2023/01/28 07:24:50;;;;;;;27.52;12.05;;;;;;;0.60;69.45;100923.89;1854385;77;21040;-49
2023/01/28 07:27:19;;;;;;;34.55;13.95;;;;;;;0.69;69.36;100920.90;1854513;77;21158;-46
2023/01/28 07:29:48;;;;;;;43.90;14.10;;;;;;;0.69;69.26;100913.12;1854631;77;21104;-48
2023/01/28 07:32:16;;;;;;;34.30;13.75;;;;;;;0.71;69.23;100910.11;1854477;77;21134;-48
2023/01/28 07:34:45;;;;;;;29.30;11.83;;;;;;;0.78;69.20;100923.11;1854524;77;21025;-46
2023/01/28 07:37:14;;;;;;;39.08;13.48;;;;;;;0.84;69.18;100917.94;1854450;77;21064;-44
2023/01/28 07:39:43;;;;;;;31.07;10.53;;;;;;;0.95;69.13;100920.14;1854664;77;21610;-49
2023/01/28 07:42:11;;;;;;;38.35;14.23;;;;;;;1.06;69.06;100919.73;1854568;77;21060;-46
2023/01/28 07:44:42;;;;;;;46.08;16.23;;;;;;;1.18;68.94;100923.22;1853635;76;21131;-43
2023/01/28 07:47:10;;;;;;;44.63;17.23;;;;;;;1.24;68.77;100927.15;1854520;77;21056;-48
2023/01/28 07:49:39;;;;;;;57.30;18.90;;;;;;;1.31;68.75;100936.64;1844448;77;21112;-46
2023/01/28 07:52:09;;;;;;;53.90;16.55;;;;;;;1.34;68.73;100928.87;1804516;79;21128;-48
2023/01/28 07:54:37;;;;;;;40.83;13.53;;;;;;;1.42;68.75;100938.86;1823685;79;21522;-47
2023/01/28 07:57:09;;;;;;;39.90;15.88;;;;;;;1.49;68.77;100950.95;1823708;79;21097;-49
2023/01/28 07:59:38;;;;;;;44.55;14.15;;;;;;;1.51;68.65;100959.63;1821776;79;21523;-48
2023/01/28 08:02:08;;;;;;;36.35;13.38;;;;;;;1.46;68.72;100950.97;1823701;79;21064;-48
2023/01/28 08:04:39;;;;;;;24.65;11.57;;;;;;;1.41;68.69;100945.34;1823576;79;21158;-49
2023/01/28 08:07:07;;;;;;;37.03;11.50;;;;;;;1.31;68.58;100945.73;1823787;79;21068;-47
2023/01/28 08:09:35;;;;;;;38.35;13.25;;;;;;;1.30;68.61;100938.83;1816920;78;21178;-43
2023/01/28 08:12:05;;;;;;;16.00;8.60;;;;;;;1.32;68.62;100937.09;1805232;78;21491;-45
2023/01/28 08:14:33;;;;;;;21.52;13.38;;;;;;;1.34;68.58;100944.45;1845675;78;21097;-43
2023/01/28 08:17:02;;;;;;;27.93;11.25;;;;;;;1.32;68.50;100935.80;1827388;78;21112;-43
2023/01/28 08:19:31;;;;;;;40.73;14.28;;;;;;;1.34;68.47;100934.06;1815076;79;21134;-44
2023/01/28 08:21:59;;;;;;;23.62;9.60;;;;;;;1.32;68.41;100928.87;1815064;79;21151;-45
2023/01/28 08:24:28;;;;;;;31.23;10.30;;;;;;;1.33;68.45;100919.38;1815129;79;21080;-43
2023/01/28 08:26:57;;;;;;;40.17;11.97;;;;;;;1.34;68.56;100920.66;1815081;79;21130;-45
2023/01/28 08:29:25;;;;;;;34.70;13.20;;;;;;;1.36;68.51;100914.17;1835741;78;21073;-45
2023/01/28 08:31:54;;;;;;;32.17;13.75;;;;;;;1.36;68.47;100905.09;1845543;78;21153;-50
2023/01/28 08:34:23;;;;;;;35.95;11.15;;;;;;;1.41;68.46;100911.61;1844532;78;21054;-49
2023/01/28 08:36:52;;;;;;;33.85;13.93;;;;;;;1.46;68.73;100915.94;1845609;78;21128;-46
2023/01/28 08:39:21;;;;;;;37.03;14.50;;;;;;;1.57;68.69;100918.95;1845744;78;21054;-46
2023/01/28 08:41:50;;;;;;;43.15;15.08;;;;;;;1.66;68.56;100917.25;1845618;78;21059;-45
2023/01/28 08:44:18;;;;;;;40.12;14.03;;;;;;;1.78;68.47;100922.87;1845503;78;21176;-45
2023/01/28 08:46:47;;;;;;;39.88;13.38;;;;;;;1.84;68.49;100928.05;1845674;78;21109;-53
2023/01/28 08:49:17;;;;;;;32.35;13.45;;;;;;;1.86;68.48;100920.27;1845577;78;21607;-51
2023/01/28 08:51:45;;;;;;;35.48;14.05;;;;;;;1.78;68.49;100910.33;1838967;78;21153;-51
2023/01/28 08:54:14;;;;;;;41.33;14.95;;;;;;;1.76;68.46;100909.03;1811389;79;21106;-52
2023/01/28 08:56:43;;;;;;;32.15;12.23;;;;;;;1.73;68.48;100906.02;1811386;79;21055;-52
2023/01/28 08:59:12;;;;;;;29.20;12.10;;;;;;;1.76;68.49;100896.48;1811413;79;21117;-52
2023/01/28 09:01:41;;;;;;;32.93;14.70;;;;;;;1.77;68.34;100887.41;1811418;79;21039;-51
2023/01/28 09:04:09;;;;;;;33.08;12.70;;;;;;;1.75;68.17;100876.12;1811338;79;21071;-54
2023/01/28 09:06:38;;;;;;;32.45;11.00;;;;;;;1.77;68.18;100887.41;1814589;79;21092;-50
2023/01/28 09:09:06;;;;;;;25.15;11.83;;;;;;;1.80;68.13;100891.28;1813896;79;21082;-50
2023/01/28 09:11:35;;;;;;;36.93;15.15;;;;;;;1.89;68.07;100880.87;1816089;79;21057;-47
2023/01/28 09:14:04;;;;;;;39.05;14.45;;;;;;;1.95;67.99;100881.75;1815293;79;21566;-47
2023/01/28 09:16:32;;;;;;;50.05;13.60;;;;;;;2.00;67.89;100886.06;1815661;79;21096;-48
2023/01/28 09:19:01;;;;;;;32.85;11.68;;;;;;;2.04;67.90;100885.63;1815875;79;21052;-48
2023/01/28 09:21:30;;;;;;;34.60;12.73;;;;;;;2.08;67.84;100888.64;1806085;77;21578;-46
2023/01/28 09:23:58;;;;;;;34.48;14.75;;;;;;;2.08;67.76;100884.30;1811515;77;21172;-46
2023/01/28 09:26:27;;;;;;;27.70;11.20;;;;;;;2.13;67.81;100884.31;1813284;79;21122;-47
2023/01/28 09:28:55;;;;;;;22.62;10.20;;;;;;;2.18;67.70;100884.32;1817369;79;21036;-51
2023/01/28 09:31:24;;;;;;;39.18;14.38;;;;;;;2.20;67.58;100891.23;1817633;79;21064;-52
2023/01/28 09:33:56;;;;;;;20.00;9.50;;;;;;;2.24;67.50;100885.59;1817683;79;21096;-49
2023/01/28 09:36:23;;;;;;;16.97;9.03;;;;;;;2.29;67.48;100891.66;1814388;77;21199;-47
2023/01/28 09:38:52;;;;;;;21.62;10.55;;;;;;;2.33;67.47;100892.51;1821608;78;21049;-51
2023/01/28 09:41:27;;;;;;;32.53;13.05;;;;;;;2.35;67.27;100886.87;1847904;78;21134;-52
2023/01/28 09:44:15;;;;;;;32.13;9.85;;;;;;;2.38;67.31;100883.83;1848038;78;21072;-51
2023/01/28 09:46:44;;;;;;;23.27;10.45;;;;;;;2.43;67.34;100885.09;1847869;78;21519;-49
2023/01/28 09:49:21;;;;;;;30.92;11.38;;;;;;;2.40;67.25;100876.00;1847889;77;21068;-51
2023/01/28 09:51:53;;;;;;;36.23;13.05;;;;;;;2.29;67.17;100891.20;1847910;78;21467;-50
2023/01/28 09:54:30;;;;;;;35.98;14.83;;;;;;;2.18;67.19;100889.52;1847866;78;21096;-47
2023/01/28 09:57:08;;;;;;;22.90;10.53;;;;;;;2.11;67.30;100884.31;1847506;78;21081;-50
2023/01/28 09:59:37;;;;;;;36.88;14.58;;;;;;;2.15;67.44;100874.78;1847761;76;21052;-48
2023/01/28 10:02:39;;;;;;;25.57;11.38;;;;;;;2.17;67.42;100872.19;1848037;77;21072;-52
2023/01/28 10:05:16;;;;;;;37.60;12.75;;;;;;;2.16;67.33;100871.33;1846828;76;21073;-46
2023/01/28 10:07:50;;;;;;;25.48;10.90;;;;;;;2.15;67.33;100872.19;1847856;78;21205;-47
2023/01/28 10:10:34;;;;;;;28.12;15.65;;;;;;;2.13;67.33;100866.12;1847014;76;21105;-47
2023/01/28 10:13:05;;;;;;;39.65;14.75;;;;;;;2.11;67.33;100862.67;1848119;76;21069;-49
2023/01/28 10:16:00;;;;;;;40.73;16.02;;;;;;;2.07;67.32;100845.38;1836481;78;21065;-51
2023/01/28 10:18:29;;;;;;;;;;;;;;;2.04;67.33;100833.23;1817051;79;21601;-51
2023/01/28 10:21:03;;;;;;;15.20;8.50;;;;;;;2.05;67.41;100825.04;1816177;77;20138;-52
2023/01/28 10:23:41;;;;;;;10.58;5.78;;;;;;;2.04;67.39;100819.40;1808551;79;21155;-52
2023/01/28 10:26:15;;;;;;;26.00;10.45;;;;;;;2.06;67.39;100839.73;1809818;79;21092;-47
2023/01/28 10:28:46;;;;;;;37.08;13.50;;;;;;;2.07;67.31;100862.26;1816907;77;21061;-50
2023/01/28 10:31:15;;;;;;;41.28;13.85;;;;;;;2.10;67.45;100865.72;1817436;79;21151;-47
2023/01/28 10:33:43;;;;;;;16.67;9.73;;;;;;;2.22;67.58;100863.95;1817458;79;21163;-50
2023/01/28 10:36:12;;;;;;;32.53;14.38;;;;;;;2.28;67.42;100863.92;1817577;79;21056;-47
2023/01/28 10:38:41;;;;;;;34.53;11.50;;;;;;;2.31;67.36;100872.58;1815487;79;21162;-46
2023/01/28 10:41:12;;;;;;;32.95;12.07;;;;;;;2.39;67.27;100871.69;1817682;79;21131;-49
2023/01/28 10:43:42;;;;;;;37.28;13.65;;;;;;;2.46;67.20;100874.70;1817699;78;21090;-51
2023/01/28 10:46:17;;;;;;;32.30;13.28;;;;;;;2.56;67.33;100866.42;1817681;79;21606;-47
2023/01/28 10:48:58;;;;;;;32.88;12.98;;;;;;;2.67;67.24;100885.03;1817772;79;21099;-49
2023/01/28 10:51:35;;;;;;;33.45;13.85;;;;;;;2.71;67.23;100885.84;1812528;78;21179;-51
2023/01/28 10:54:06;;;;;;;38.92;14.53;;;;;;;2.80;67.24;100879.75;1817771;79;21579;-49
2023/01/28 10:56:35;;;;;;;31.60;13.78;;;;;;;2.87;67.07;100869.75;1817606;79;21391;-51
2023/01/28 10:59:07;;;;;;;33.67;11.68;;;;;;;2.92;66.92;100877.55;1817798;79;21040;-46
2023/01/28 11:01:47;;;;;;;29.90;11.05;;;;;;;2.91;66.77;100870.16;1809987;79;21119;-50
2023/01/28 11:04:19;;;;;;;32.42;12.40;;;;;;;2.88;66.87;100872.80;1788273;80;21597;-51
2023/01/28 11:07:02;;;;;;;21.95;8.03;;;;;;;2.85;66.83;100868.89;1787037;79;21084;-52
2023/01/28 11:09:36;;;;;;;18.50;8.20;;;;;;;2.75;66.65;100867.20;1788269;80;21056;-50
2023/01/28 11:12:05;;;;;;;;;;;;;;;2.66;66.61;100864.23;1792560;79;21108;-51
2023/01/28 11:14:34;;;;;;;39.30;13.83;;;;;;;2.63;66.54;100862.48;1788729;79;20155;-51
2023/01/28 11:17:03;;;;;;;32.65;15.68;;;;;;;2.59;66.53;100868.58;1788103;80;21228;-52
2023/01/28 11:19:36;;;;;;;26.77;12.73;;;;;;;2.59;66.57;100857.33;1788195;80;21167;-53
2023/01/28 11:22:05;;;;;;;34.10;14.63;;;;;;;2.61;66.65;100856.44;1788340;79;21162;-45
2023/01/28 11:24:34;;;;;;;35.05;14.58;;;;;;;2.66;66.71;100852.09;1816484;79;21068;-46
2023/01/28 11:27:06;;;;;;;33.92;12.93;;;;;;;2.70;66.69;100847.30;1817673;79;21108;-46
2023/01/28 11:29:36;;;;;;;39.85;15.08;;;;;;;2.74;66.75;100842.94;1815795;78;21146;-48
2023/01/28 11:32:07;;;;;;;30.55;11.97;;;;;;;2.77;66.72;100849.88;1817900;78;21088;-49
2023/01/28 11:34:36;;;;;;;35.95;15.72;;;;;;;2.81;66.81;100848.98;1817709;78;21651;-50
2023/01/28 11:37:19;;;;;;;38.13;13.95;;;;;;;2.85;66.73;100857.19;1817392;79;21053;-46
2023/01/28 11:39:45;;;;;;;33.70;13.70;;;;;;;2.86;66.77;100851.13;1816826;79;21072;-50
2023/01/28 11:42:22;;;;;;;32.60;12.82;;;;;;;2.89;66.68;100851.09;1789314;79;21197;-47
2023/01/28 11:44:50;;;;;;;32.40;15.15;;;;;;;2.89;66.61;100858.45;1788084;80;21068;-51
2023/01/28 11:47:43;;;;;;;19.45;9.93;;;;;;;2.88;66.64;100853.28;1788063;80;21088;-50
2023/01/28 11:50:24;;;;;;;41.02;16.05;;;;;;;2.89;66.56;100850.65;1794218;79;21068;-52
2023/01/28 11:53:01;;;;;;;18.82;8.20;;;;;;;2.88;66.44;100849.38;1819721;78;21142;-48
2023/01/28 11:55:53;;;;;;;22.70;9.15;;;;;;;2.86;66.36;100850.69;1818800;78;21070;-49
2023/01/28 11:58:31;;;;;;;42.13;16.57;;;;;;;2.87;66.30;100854.14;1847932;76;21166;-46
2023/01/28 12:01:26;;;;;;;46.68;16.52;;;;;;;2.87;66.32;100850.24;1847984;77;21048;-43
2023/01/28 12:03:55;;;;;;;;;;;;;;;2.92;66.35;100847.63;1850667;78;21475;-42
2023/01/28 12:06:43;;;;;;;34.25;14.55;;;;;;;2.96;66.25;100840.23;1845246;76;20213;-42